メインページ
METAR-TAF:

METAR-TAF

空港 :

ウィンザー, オンタリオ州, カナダ

緯度: 42-16N, 経度: 082-58W, 海抜: 190m

現時点の気象観測

当レポートは30分前の16:00(UTC)に作成
の風 6kt
気温 28°C
湿度 58%
気圧 1019 hPa
視程: 14.5km
晴天

METAR: CYQG 261600Z AUTO 19006KT 9SM CLR 28/19 A3009 RMK SLP187 DENSITY ALT 2100FT

時間: 12:30 (16:30 UTC)

予報

当レポートは4時間52分前の11:38(UTC)に作成
予報は26日の 12時(UTC)から 27日の 12時(UTC)まで有効
変向風 3kt
視程: 10km
高度15000ftの雲はほとんどない
高度20000ftの雲は散在している
26日の 12時(UTC)から 26日の 13時(UTC)まで一時的に
視程: 3.2km
高度400ftの雲は散在している
26日の 13時(UTC)から 26日の 15時(UTC)まで徐々に
南/南西の風 8kt
26日の 1600時(UTC)から
南/南西の風 12kt
視程: 10km
高度6000ftの雲は散在している
確率 30%
26日の 19時(UTC)から 27日の 01時(UTC)まで
変向風 15kt、最大25ktの突風を伴う
視程: 4.8km
高度5000ftの千切れ雲あり, 積乱雲.
激しい雷雨, 雨
27日の 0100時(UTC)から
南/南東の風 10kt
視程: 10km
高度6000ftの雲はほとんどない
高度15000ftの雲はほとんどない
高度25000ftの雲は散在している
27日の 02時(UTC)から 27日の 04時(UTC)まで徐々に
南/南東の風 5kt

TAF: CYQG 261138Z 2612/2712 VRB03KT P6SM FEW150 SCT200 TEMPO 2612/2613 2SM BR SCT004 BECMG 2613/2615 20008KT FM261600 20012KT P6SM SCT060 PROB30 2619/2701 VRB15G25KT 3SM TSRA BKN050CB FM270100 16010KT P6SM FEW060 FEW150 SCT250 BECMG 2702/2704 16005KT RMK FCST BASED ON AUTO OBS. NXT FCST BY 261800Z

4,000以上の空港の気象観測と天気予報(METAR報とTAF報)

利用可能な観測所は地図上に黄色い丸と赤い丸で示す。

丸の上にカーソルを重ねると観測所名を参照できる。

次にクリックすると気象観測と天気予報を参照できる。

マップの切り替え:黒色「×」印の緑ボタンをクリックして拡大、「-」印の緑ボタンをクリックして縮小、緑色の三角印をクリックして隣りの地図に切り替え


METAR-TAF: